createdAt,value
2022-09-17T00:02:07.229Z,9.06
2022-09-17T00:07:11.699Z,8.99
2022-09-17T00:12:14.642Z,8.99
2022-09-17T00:17:17.545Z,8.99
2022-09-17T00:22:21.850Z,9.04
2022-09-17T00:27:24.776Z,9.04
2022-09-17T00:32:27.888Z,9.19
2022-09-17T00:37:32.220Z,9.20
2022-09-17T00:42:35.139Z,9.16
2022-09-17T00:47:41.360Z,9.15
2022-09-17T00:52:47.818Z,9.17
2022-09-17T00:57:53.501Z,9.17
2022-09-17T01:02:56.397Z,9.27
2022-09-17T01:08:08.837Z,9.13
2022-09-17T01:13:20.876Z,9.10
2022-09-17T01:18:38.542Z,9.10
2022-09-17T01:24:12.936Z,9.13
2022-09-17T01:29:35.095Z,9.15
2022-09-17T01:34:46.390Z,9.17
2022-09-17T01:39:54.885Z,9.14
2022-09-17T01:45:05.585Z,9.22
2022-09-17T01:50:14.394Z,9.25
2022-09-17T01:55:19.594Z,9.12
2022-09-17T02:00:23.448Z,9.14
2022-09-17T02:05:32.295Z,9.25
2022-09-17T02:10:42.145Z,9.24
2022-09-17T02:15:51.268Z,9.11
2022-09-17T02:21:04.086Z,9.17
2022-09-17T02:26:11.107Z,9.17
2022-09-17T02:31:14.267Z,9.13
2022-09-17T02:36:19.354Z,9.20
2022-09-17T02:41:27.066Z,9.24
2022-09-17T02:46:49.801Z,9.27
2022-09-17T02:52:08.048Z,9.25
2022-09-17T02:57:22.189Z,9.21
2022-09-17T03:02:29.893Z,9.11
2022-09-17T03:07:34.298Z,9.19
2022-09-17T03:12:37.774Z,9.24
2022-09-17T03:17:40.704Z,9.18
2022-09-17T03:22:44.955Z,9.19
2022-09-17T03:27:48.328Z,9.13
2022-09-17T03:32:51.250Z,9.19
2022-09-17T03:37:55.503Z,9.00
2022-09-17T03:42:58.405Z,9.06
2022-09-17T03:48:01.383Z,8.99
2022-09-17T03:53:06.249Z,9.04
2022-09-17T03:58:09.508Z,9.04
2022-09-17T04:03:12.720Z,9.13
2022-09-17T04:08:17.132Z,9.10
2022-09-17T04:13:20.439Z,8.99
2022-09-17T04:18:23.338Z,9.07
2022-09-17T04:23:27.662Z,9.07
2022-09-17T04:28:30.545Z,9.05
2022-09-17T04:33:33.443Z,9.04
2022-09-17T04:38:37.691Z,8.94
2022-09-17T04:43:40.639Z,8.91
2022-09-17T04:48:43.560Z,8.85
2022-09-17T04:53:47.860Z,8.92
2022-09-17T04:58:50.751Z,8.89
2022-09-17T05:03:53.644Z,8.90
2022-09-17T05:08:57.929Z,8.93
2022-09-17T05:14:00.975Z,8.90
2022-09-17T05:19:04.187Z,8.92
2022-09-17T05:24:08.886Z,8.93
2022-09-17T05:29:11.764Z,8.88
2022-09-17T05:34:14.696Z,8.97
2022-09-17T05:39:20.798Z,8.89
2022-09-17T05:44:25.947Z,9.04
2022-09-17T05:49:28.854Z,9.17
2022-09-17T05:54:33.167Z,9.11
2022-09-17T05:59:36.298Z,9.00
2022-09-17T06:04:39.206Z,9.07
2022-09-17T06:09:43.458Z,9.23
2022-09-17T06:14:46.568Z,9.24
2022-09-17T06:19:49.496Z,9.39
2022-09-17T06:24:53.758Z,9.40
2022-09-17T06:29:56.654Z,9.25
2022-09-17T06:34:59.583Z,9.24
2022-09-17T06:40:04.645Z,9.37
2022-09-17T06:45:12.100Z,9.44
2022-09-17T06:50:17.524Z,9.46
2022-09-17T06:55:22.313Z,9.50
2022-09-17T07:00:25.305Z,9.47
2022-09-17T07:05:30.585Z,9.48
2022-09-17T07:10:34.842Z,9.55
2022-09-17T07:15:37.782Z,9.66
2022-09-17T07:20:40.708Z,9.56
2022-09-17T07:25:44.954Z,9.33
2022-09-17T07:30:48.225Z,9.31
2022-09-17T07:35:54.895Z,9.36
2022-09-17T07:41:00.985Z,9.44
2022-09-17T07:46:05.823Z,9.55
2022-09-17T07:51:08.790Z,9.77
2022-09-17T07:56:13.157Z,9.80
2022-09-17T08:01:17.289Z,10.03
2022-09-17T08:06:22.857Z,9.98
2022-09-17T08:16:52.068Z,10.26
2022-09-17T08:21:54.962Z,10.49
2022-09-17T08:26:59.237Z,10.39
2022-09-17T08:32:02.166Z,10.41
2022-09-17T08:37:05.177Z,10.28
2022-09-17T08:42:18.366Z,10.30
2022-09-17T08:47:26.113Z,10.83
2022-09-17T08:52:57.714Z,11.05
2022-09-17T08:58:21.655Z,11.57
2022-09-17T09:03:38.240Z,11.46
2022-09-17T09:08:44.255Z,11.28
2022-09-17T09:13:52.658Z,11.36
2022-09-17T09:18:56.719Z,11.50
2022-09-17T09:24:11.371Z,11.47
2022-09-17T09:29:29.937Z,12.09
2022-09-17T09:34:36.087Z,12.22
2022-09-17T09:39:45.938Z,12.31
2022-09-17T09:44:50.979Z,12.43
2022-09-17T09:51:01.915Z,12.64
2022-09-17T09:56:16.499Z,12.72
2022-09-17T10:01:21.520Z,13.66
2022-09-17T10:06:29.758Z,13.59
2022-09-17T10:11:34.220Z,12.60
2022-09-17T10:16:37.236Z,12.26
2022-09-17T10:21:43.627Z,11.38
2022-09-17T10:26:46.649Z,11.12
2022-09-17T10:31:51.345Z,11.53
2022-09-17T10:36:57.303Z,11.48
2022-09-17T10:42:01.956Z,11.23
2022-09-17T10:47:09.081Z,11.06
2022-09-17T10:52:24.728Z,11.41
2022-09-17T10:57:42.112Z,12.09
2022-09-17T11:03:21.367Z,12.43
2022-09-17T11:08:34.727Z,12.18
2022-09-17T11:13:46.349Z,11.18
2022-09-17T11:18:57.833Z,11.06
2022-09-17T11:24:36.145Z,11.69
2022-09-17T11:29:58.256Z,12.11
2022-09-17T11:35:04.775Z,12.56
2022-09-17T11:40:16.768Z,12.63
2022-09-17T11:45:26.309Z,11.74
2022-09-17T11:50:33.610Z,10.97
2022-09-17T11:55:41.336Z,10.45
2022-09-17T12:00:52.260Z,10.95
2022-09-17T12:05:58.588Z,11.53
2022-09-17T12:11:07.485Z,12.00
2022-09-17T12:16:17.700Z,12.79
2022-09-17T12:21:25.817Z,12.99
2022-09-17T12:26:39.591Z,12.66
2022-09-17T12:31:52.287Z,12.36
2022-09-17T12:37:03.220Z,12.41
2022-09-17T12:42:15.765Z,12.56
2022-09-17T12:47:50.437Z,12.75
2022-09-17T12:53:05.258Z,12.76
2022-09-17T12:58:21.132Z,12.84
2022-09-17T13:03:30.606Z,12.77
2022-09-17T13:09:05.176Z,12.75
2022-09-17T13:14:19.339Z,12.60
2022-09-17T13:19:33.900Z,12.26
2022-09-17T13:24:38.369Z,11.17
2022-09-17T13:30:01.885Z,11.34
2022-09-17T13:40:37.661Z,12.76
2022-09-17T13:46:12.400Z,12.67
2022-09-17T13:51:54.410Z,12.77
2022-09-17T13:57:15.699Z,12.65
2022-09-17T14:02:31.648Z,13.00
2022-09-17T14:07:36.694Z,13.32
2022-09-17T14:12:56.489Z,12.81
2022-09-17T14:17:59.479Z,12.69
2022-09-17T14:23:03.996Z,12.68
2022-09-17T14:28:16.178Z,12.55
2022-09-17T14:33:26.249Z,12.61
2022-09-17T14:38:34.201Z,12.41
2022-09-17T14:43:45.154Z,12.42
2022-09-17T14:48:48.070Z,12.53
2022-09-17T14:54:09.968Z,12.43
2022-09-17T14:59:23.789Z,12.40
2022-09-17T15:04:28.055Z,12.27
2022-09-17T15:09:30.956Z,12.44
2022-09-17T15:14:39.843Z,12.82
2022-09-17T15:19:46.151Z,13.05
2022-09-17T15:24:54.214Z,13.06
2022-09-17T15:30:03.157Z,12.95
2022-09-17T15:35:28.321Z,12.75
2022-09-17T15:40:34.180Z,12.45
2022-09-17T15:45:39.936Z,12.52
2022-09-17T15:50:53.055Z,12.57
2022-09-17T15:56:06.116Z,12.56
2022-09-17T16:01:42.214Z,12.32
2022-09-17T16:07:01.384Z,12.20
2022-09-17T16:12:04.315Z,12.07
2022-09-17T16:17:21.420Z,12.00
2022-09-17T16:22:26.357Z,11.98
2022-09-17T16:27:33.741Z,11.92
2022-09-17T16:32:36.691Z,11.81
2022-09-17T16:37:41.077Z,11.69
2022-09-17T16:42:44.023Z,11.68
2022-09-17T16:47:47.174Z,11.47
2022-09-17T16:52:51.495Z,11.35
2022-09-17T16:57:54.415Z,11.23
2022-09-17T17:02:58.786Z,11.02
2022-09-17T17:08:06.707Z,10.94
2022-09-17T17:13:09.907Z,10.84
2022-09-17T17:18:12.914Z,10.80
2022-09-17T17:23:17.563Z,10.77
2022-09-17T17:28:20.501Z,10.62
2022-09-17T17:33:23.619Z,10.49
2022-09-17T17:38:28.427Z,10.36
2022-09-17T17:43:31.404Z,10.24
2022-09-17T17:48:34.393Z,10.04
2022-09-17T17:53:39.483Z,9.96
2022-09-17T17:58:42.464Z,9.87
2022-09-17T18:03:45.441Z,9.78
2022-09-17T18:08:49.754Z,9.65
2022-09-17T18:13:53.717Z,9.41
2022-09-17T18:18:58.072Z,9.38
2022-09-17T18:24:03.075Z,9.37
2022-09-17T18:29:08.244Z,9.19
2022-09-17T18:34:14.097Z,9.11
2022-09-17T18:39:57.551Z,9.15
2022-09-17T18:44:41.485Z,8.99
2022-09-17T18:49:44.409Z,8.92
2022-09-17T18:54:48.741Z,8.85
2022-09-17T18:59:52.072Z,8.91
2022-09-17T19:04:54.990Z,8.82
2022-09-17T19:10:00.752Z,8.85
2022-09-17T19:15:03.942Z,8.88
2022-09-17T19:20:07.638Z,8.92
2022-09-17T19:25:12.215Z,8.93
2022-09-17T19:30:15.332Z,8.87
2022-09-17T19:35:18.583Z,8.92
2022-09-17T19:40:22.967Z,8.96
2022-09-17T19:45:26.876Z,8.88
2022-09-17T19:50:29.983Z,8.76
2022-09-17T19:55:34.257Z,8.66
2022-09-17T20:00:37.534Z,8.57
2022-09-17T20:05:40.641Z,8.51
2022-09-17T20:10:44.942Z,8.27
2022-09-17T20:15:47.930Z,8.43
2022-09-17T20:20:50.866Z,8.35
2022-09-17T20:25:55.207Z,8.16
2022-09-17T20:31:02.768Z,8.22
2022-09-17T20:36:09.169Z,8.15
2022-09-17T20:41:15.669Z,8.01
2022-09-17T20:46:21.131Z,7.98
2022-09-17T20:51:27.814Z,7.88
2022-09-17T20:56:34.256Z,7.93
2022-09-17T21:01:38.346Z,7.95
2022-09-17T21:06:43.005Z,7.78
2022-09-17T21:11:49.011Z,7.74
2022-09-17T21:16:51.979Z,7.73
2022-09-17T21:21:56.297Z,7.77
2022-09-17T21:27:00.575Z,7.69
2022-09-17T21:32:03.590Z,7.71
2022-09-17T21:37:06.545Z,7.75
2022-09-17T21:42:10.830Z,7.80
2022-09-17T21:47:13.741Z,7.90
2022-09-17T21:52:16.673Z,7.75
2022-09-17T21:57:20.989Z,7.71
2022-09-17T22:02:24.512Z,7.76
2022-09-17T22:07:27.505Z,7.71
2022-09-17T22:12:31.773Z,7.59
2022-09-17T22:17:34.715Z,7.61
2022-09-17T22:22:37.700Z,7.62
2022-09-17T22:27:50.290Z,7.46
2022-09-17T22:33:01.849Z,7.43
2022-09-17T22:38:04.769Z,7.53
2022-09-17T22:43:09.035Z,7.37
2022-09-17T22:48:11.964Z,7.48
2022-09-17T22:53:14.969Z,7.35
2022-09-17T22:58:21.728Z,7.34
2022-09-17T23:03:27.664Z,7.27
2022-09-17T23:08:30.651Z,7.21
2022-09-17T23:13:35.390Z,7.27
2022-09-17T23:18:38.372Z,7.24
2022-09-17T23:23:42.560Z,7.04
2022-09-17T23:28:47.736Z,7.17
2022-09-17T23:33:51.093Z,7.06
2022-09-17T23:38:55.695Z,7.13
2022-09-17T23:44:01.356Z,7.21
2022-09-17T23:49:05.707Z,7.25
2022-09-17T23:54:08.599Z,7.25
2022-09-17T23:59:13.068Z,7.21
